Погода Рыбчизнана неделю

Подляское воеводство, Польша

18 - 24 июля
  • 18июля
    Сегодня
    +13°
    +26°
    Облачно с прояснениями
    ВремяПогодаТемператураВлажностьДавлениеВетер, м/сВероятность осадков
    02:00Облачно с прояснениями+18°C79 %754 мм1.6 м/с2 %
    05:00Ясно и безоблачно+16°C89 %754 мм2.1 м/с8 %
    08:00Ясно и безоблачно+21°C66 %754 мм2.9 м/с3 %
    11:00Практически безоблачно+24°C50 %754 мм4.3 м/с14 %
    14:00Облачно с прояснениями+25°C41 %754 мм5.3 м/с14 %
    17:00Практически безоблачно+25°C43 %754 мм4.9 м/с4 %
    20:00Ясно и безоблачно+23°C54 %754 мм3.5 м/с2 %
    23:00Небольшая облачность+17°C75 %755 мм3.6 м/с2 %
  • 19июля
    Пятница
    +12°
    +25°
    Ясно и безоблачно
    ВремяПогодаТемператураВлажностьДавлениеВетер, м/сВероятность осадков
    02:00Практически безоблачно+14°C87 %755 мм2.2 м/с2 %
    05:00Ясно и безоблачно+13°C94 %755 мм2.3 м/с2 %
    08:00Практически безоблачно+18°C71 %755 мм3.5 м/с2 %
    11:00Практически безоблачно+22°C52 %754 мм3.8 м/с2 %
    14:00Ясно и безоблачно+24°C45 %754 мм3.9 м/с2 %
    17:00Практически безоблачно+24°C44 %753 мм4.1 м/с2 %
    20:00Ясно и безоблачно+22°C53 %752 мм3.4 м/с2 %
    23:00Ясно и безоблачно+15°C74 %752 мм2.1 м/с2 %
  • 20июля
    Суббота
    +13°
    +26°
    Ясно и безоблачно
    ВремяПогодаТемператураВлажностьДавлениеВетер, м/сВероятность осадков
    02:00Ясно и безоблачно+13°C87 %752 мм2.2 м/с2 %
    05:00Практически безоблачно+12°C96 %751 мм1.7 м/с2 %
    08:00Облачно с прояснениями+18°C72 %751 мм2.9 м/с2 %
    11:00Практически безоблачно+22°C53 %750 мм2.1 м/с2 %
    14:00Ясно и безоблачно+24°C44 %750 мм2.8 м/с2 %
    17:00Облачно с прояснениями+25°C38 %749 мм2.2 м/с2 %
    20:00Небольшая облачность+24°C48 %748 мм1.9 м/с2 %
    23:00Ясно и безоблачно+17°C73 %748 мм2.0 м/с2 %
  • 21июля
    Воскресенье
    +14°
    +27°
    Практически безоблачно
    ВремяПогодаТемператураВлажностьДавлениеВетер, м/сВероятность осадков
    02:00Ясно и безоблачно+15°C90 %748 мм1.6 м/с2 %
    05:00Ясно и безоблачно+14°C96 %748 мм1.4 м/с2 %
    08:00Практически безоблачно+20°C70 %748 мм0.4 м/с2 %
    11:00Небольшая облачность+24°C48 %748 мм1.7 м/с2 %
    14:00Практически безоблачно+27°C37 %747 мм2.5 м/с2 %
    17:00Ясно и безоблачно+27°C36 %746 мм2.5 м/с2 %
    20:00Практически безоблачно+24°C46 %746 мм1.9 м/с2 %
    23:00Ясно и безоблачно+19°C59 %747 мм2.3 м/с2 %
  • 22июля
    Понедельник
    +14°
    +29°
    Практически безоблачно
    ВремяПогодаТемператураВлажностьДавлениеВетер, м/сВероятность осадков
    02:00Ясно и безоблачно+17°C69 %746 мм2.0 м/с2 %
    05:00Ясно и безоблачно+15°C79 %746 мм1.8 м/с2 %
    08:00Ясно и безоблачно+21°C59 %747 мм2.0 м/с2 %
    11:00Ясно и безоблачно+27°C41 %747 мм1.0 м/с3 %
    14:00Практически безоблачно+28°C32 %746 мм1.1 м/с9 %
    17:00Ясно и безоблачно+26°C28 %746 мм3.1 м/с15 %
    20:00Ясно и безоблачно+24°C41 %747 мм2.6 м/с22 %
    23:00Ясно и безоблачно+19°C58 %747 мм2.3 м/с22 %
Мы используем cookies
Соглашаюсь